createdAt,value
2022-12-09T00:00:36.570Z,0.6
2022-12-09T00:01:37.983Z,0.6
2022-12-09T00:02:39.556Z,0.6
2022-12-09T00:03:41.432Z,0.6
2022-12-09T00:04:43.723Z,0.6
2022-12-09T00:05:45.972Z,0.6
2022-12-09T00:06:47.201Z,0.6
2022-12-09T00:07:48.760Z,0.6
2022-12-09T00:08:50.667Z,0.6
2022-12-09T00:09:52.498Z,0.6
2022-12-09T00:10:53.658Z,0.6
2022-12-09T00:11:54.826Z,0.6
2022-12-09T00:12:56.365Z,0.6
2022-12-09T00:13:57.832Z,0.6
2022-12-09T00:14:59.436Z,0.6
2022-12-09T00:16:01.211Z,0.6
2022-12-09T00:17:03.314Z,0.6
2022-12-09T00:18:05.375Z,0.6
2022-12-09T00:19:06.958Z,0.6
2022-12-09T00:20:08.830Z,0.6
2022-12-09T00:21:11.909Z,0.6
2022-12-09T00:22:13.227Z,0.6
2022-12-09T00:23:14.846Z,0.6
2022-12-09T00:24:16.560Z,0.6
2022-12-09T00:25:18.343Z,0.6
2022-12-09T00:26:19.764Z,0.6
2022-12-09T00:27:21.154Z,0.6
2022-12-09T00:28:22.458Z,0.6
2022-12-09T00:29:23.565Z,0.6
2022-12-09T00:30:24.924Z,0.6
2022-12-09T00:31:26.186Z,0.6
2022-12-09T00:32:28.277Z,0.6
2022-12-09T00:33:30.351Z,0.5
2022-12-09T00:34:32.028Z,0.5
2022-12-09T00:35:33.872Z,0.6
2022-12-09T00:36:35.417Z,0.5
2022-12-09T00:37:36.863Z,0.6
2022-12-09T00:38:38.130Z,0.6
2022-12-09T00:39:39.138Z,0.5
2022-12-09T00:40:40.601Z,0.5
2022-12-09T00:41:42.581Z,0.5
2022-12-09T00:42:43.831Z,0.5
2022-12-09T00:43:45.359Z,0.5
2022-12-09T00:44:46.543Z,0.5
2022-12-09T00:45:48.343Z,0.5
2022-12-09T00:46:49.540Z,0.5
2022-12-09T00:47:51.315Z,0.5
2022-12-09T00:48:53.283Z,0.5
2022-12-09T00:49:55.086Z,0.5
2022-12-09T00:50:56.623Z,0.5
2022-12-09T00:51:58.505Z,0.5
2022-12-09T00:52:59.866Z,0.5
2022-12-09T00:54:01.480Z,0.4
2022-12-09T00:55:03.599Z,0.4
2022-12-09T00:56:05.029Z,0.4
2022-12-09T00:57:07.066Z,0.4
2022-12-09T00:58:08.721Z,0.4
2022-12-09T00:59:10.201Z,0.4
2022-12-09T01:00:11.658Z,0.4
2022-12-09T01:01:14.192Z,0.4
2022-12-09T01:02:15.868Z,0.4
2022-12-09T01:03:18.622Z,0.4
2022-12-09T01:04:20.784Z,0.4
2022-12-09T01:05:22.578Z,0.4
2022-12-09T01:06:24.418Z,0.4
2022-12-09T01:07:25.703Z,0.3
2022-12-09T01:08:27.371Z,0.3
2022-12-09T01:09:29.253Z,0.3
2022-12-09T01:10:30.972Z,0.3
2022-12-09T01:11:32.565Z,0.3
2022-12-09T01:12:34.131Z,0.3
2022-12-09T01:13:35.451Z,0.3
2022-12-09T01:14:37.116Z,0.3
2022-12-09T01:15:38.373Z,0.3
2022-12-09T01:16:40.299Z,0.2
2022-12-09T01:17:42.211Z,0.2
2022-12-09T01:18:44.075Z,0.2
2022-12-09T01:19:45.677Z,0.2
2022-12-09T01:20:47.159Z,0.2
2022-12-09T01:21:48.361Z,0.2
2022-12-09T01:22:50.049Z,0.2
2022-12-09T01:23:51.475Z,0.1
2022-12-09T01:24:52.989Z,0.1
2022-12-09T01:25:54.602Z,0.1
2022-12-09T01:26:56.337Z,0.1
2022-12-09T01:27:58.051Z,0.1
2022-12-09T01:28:59.489Z,0.1
2022-12-09T01:30:00.948Z,0
2022-12-09T01:31:02.413Z,0
2022-12-09T01:32:04.208Z,0
2022-12-09T01:33:06.271Z,0
2022-12-09T01:34:07.715Z,0
2022-12-09T01:35:09.323Z,0
2022-12-09T01:36:11.824Z,-0.1
2022-12-09T01:37:13.712Z,-0.1
2022-12-09T01:38:15.405Z,-0.1
2022-12-09T01:39:17.296Z,-0.1
2022-12-09T01:40:19.054Z,-0.1
2022-12-09T01:41:21.236Z,-0.2
2022-12-09T01:42:22.790Z,-0.2
2022-12-09T01:43:24.601Z,-0.2
2022-12-09T01:44:26.160Z,-0.2
2022-12-09T01:45:28.022Z,-0.2
2022-12-09T01:46:29.712Z,-0.3
2022-12-09T01:47:31.317Z,-0.3
2022-12-09T01:48:32.820Z,-0.3
2022-12-09T01:49:34.951Z,-0.3
2022-12-09T01:50:36.729Z,-0.3
2022-12-09T01:51:38.075Z,-0.3
2022-12-09T01:52:39.589Z,-0.3
2022-12-09T01:53:41.091Z,-0.3
2022-12-09T01:54:43.083Z,-0.3
2022-12-09T01:55:45.658Z,-0.3
2022-12-09T01:56:47.544Z,-0.3
2022-12-09T01:57:48.941Z,-0.3
2022-12-09T01:58:50.604Z,-0.3
2022-12-09T01:59:52.154Z,-0.3
2022-12-09T02:00:53.932Z,-0.3
2022-12-09T02:01:55.587Z,-0.3
2022-12-09T02:02:57.602Z,-0.3
2022-12-09T02:04:00.249Z,-0.3
2022-12-09T02:05:02.830Z,-0.3
2022-12-09T02:06:04.633Z,-0.3
2022-12-09T02:07:06.254Z,-0.3
2022-12-09T02:08:07.780Z,-0.3
2022-12-09T02:09:09.739Z,-0.3
2022-12-09T02:10:11.885Z,-0.3
2022-12-09T02:11:13.735Z,-0.3
2022-12-09T02:12:15.326Z,-0.3
2022-12-09T02:13:16.661Z,-0.3
2022-12-09T02:14:18.096Z,-0.4
2022-12-09T02:15:19.733Z,-0.4
2022-12-09T02:16:21.224Z,-0.4
2022-12-09T02:17:22.749Z,-0.4
2022-12-09T02:18:24.617Z,-0.4
2022-12-09T02:19:26.229Z,-0.4
2022-12-09T02:20:27.830Z,-0.4
2022-12-09T02:21:28.983Z,-0.4
2022-12-09T02:22:30.551Z,-0.4
2022-12-09T02:23:31.983Z,-0.4
2022-12-09T02:24:33.486Z,-0.4
2022-12-09T02:25:35.351Z,-0.4
2022-12-09T02:26:37.026Z,-0.5
2022-12-09T02:27:38.411Z,-0.5
2022-12-09T02:28:39.838Z,-0.5
2022-12-09T02:29:41.831Z,-0.5
2022-12-09T02:30:43.460Z,-0.5
2022-12-09T02:31:44.860Z,-0.5
2022-12-09T02:32:47.033Z,-0.5
2022-12-09T02:33:48.821Z,-0.5
2022-12-09T02:34:50.538Z,-0.5
2022-12-09T02:35:51.901Z,-0.5
2022-12-09T02:36:53.336Z,-0.5
2022-12-09T02:37:54.764Z,-0.6
2022-12-09T02:38:55.921Z,-0.6
2022-12-09T02:39:57.875Z,-0.6
2022-12-09T02:40:59.447Z,-0.6
2022-12-09T02:42:01.529Z,-0.6
2022-12-09T02:43:03.355Z,-0.6
2022-12-09T02:44:05.473Z,-0.6
2022-12-09T02:45:07.534Z,-0.7
2022-12-09T02:46:09.586Z,-0.7
2022-12-09T02:47:11.024Z,-0.7
2022-12-09T02:48:13.619Z,-0.7
2022-12-09T02:49:15.881Z,-0.7
2022-12-09T02:50:17.870Z,-0.7
2022-12-09T02:51:19.349Z,-0.8
2022-12-09T02:52:20.507Z,-0.8
2022-12-09T02:53:22.369Z,-0.8
2022-12-09T02:54:23.970Z,-0.8
2022-12-09T02:55:25.718Z,-0.8
2022-12-09T02:56:27.203Z,-0.8
2022-12-09T02:57:29.063Z,-0.8
2022-12-09T02:58:30.552Z,-0.8
2022-12-09T02:59:32.760Z,-0.9
2022-12-09T03:00:34.404Z,-0.9
2022-12-09T03:01:36.648Z,-0.9
2022-12-09T03:02:38.685Z,-0.9
2022-12-09T03:03:40.682Z,-0.9
2022-12-09T03:04:42.792Z,-0.9
2022-12-09T03:05:44.860Z,-0.9
2022-12-09T03:06:45.586Z,-0.9
2022-12-09T03:07:47.478Z,-0.9
2022-12-09T03:08:49.223Z,-1
2022-12-09T03:09:51.650Z,-1
2022-12-09T03:10:52.970Z,-1
2022-12-09T03:11:55.041Z,-1
2022-12-09T03:12:56.693Z,-1
2022-12-09T03:13:58.800Z,-1
2022-12-09T03:15:00.425Z,-1
2022-12-09T03:16:02.045Z,-1
2022-12-09T03:17:04.190Z,-1.1
2022-12-09T03:18:06.444Z,-1.1
2022-12-09T03:19:08.244Z,-1.1
2022-12-09T03:20:09.946Z,-1.1
2022-12-09T03:21:13.214Z,-1.1
2022-12-09T03:22:15.337Z,-1.1
2022-12-09T03:23:16.529Z,-1.1
2022-12-09T03:24:17.797Z,-1.1
2022-12-09T03:25:19.508Z,-1.1
2022-12-09T03:26:20.797Z,-1.1
2022-12-09T03:27:23.051Z,-1.1
2022-12-09T03:28:24.982Z,-1.1
2022-12-09T03:29:26.908Z,-1.1
2022-12-09T03:30:28.671Z,-1.1
2022-12-09T03:31:30.263Z,-1.1
2022-12-09T03:32:32.544Z,-1.1
2022-12-09T03:33:34.573Z,-1.2
2022-12-09T03:34:37.065Z,-1.1
2022-12-09T03:35:38.400Z,-1.1
2022-12-09T03:36:40.382Z,-1.2
2022-12-09T03:37:42.190Z,-1.2
2022-12-09T03:38:43.445Z,-1.2
2022-12-09T03:39:45.023Z,-1.1
2022-12-09T03:40:47.046Z,-1.1
2022-12-09T03:41:48.775Z,-1.2
2022-12-09T03:42:50.499Z,-1.2
2022-12-09T03:43:52.548Z,-1.2
2022-12-09T03:44:54.395Z,-1.2
2022-12-09T03:45:55.595Z,-1.2
2022-12-09T03:46:57.514Z,-1.1
2022-12-09T03:47:59.460Z,-1.2
2022-12-09T03:49:01.823Z,-1.2
2022-12-09T03:50:03.057Z,-1.1
2022-12-09T03:51:06.289Z,-1.1
2022-12-09T03:52:07.791Z,-1.1
2022-12-09T03:53:09.507Z,-1.1
2022-12-09T03:54:11.122Z,-1.1
2022-12-09T03:55:12.379Z,-1.1
2022-12-09T03:56:13.808Z,-1.1
2022-12-09T03:57:18.646Z,-1.1
2022-12-09T03:58:21.401Z,-1.1
2022-12-09T03:59:23.257Z,-1.1
2022-12-09T04:00:25.117Z,-1.1
2022-12-09T04:01:26.878Z,-1
2022-12-09T04:02:29.256Z,-1
2022-12-09T04:03:32.150Z,-1
2022-12-09T04:04:34.783Z,-1
2022-12-09T04:05:37.269Z,-1
2022-12-09T04:06:38.519Z,-1
2022-12-09T04:07:40.237Z,-1
2022-12-09T04:08:42.558Z,-1
2022-12-09T04:09:44.773Z,-1
2022-12-09T04:10:47.012Z,-1
2022-12-09T04:11:49.229Z,-1
2022-12-09T04:12:50.638Z,-1
2022-12-09T04:13:52.279Z,-1
2022-12-09T04:14:54.354Z,-0.9
2022-12-09T04:15:55.952Z,-0.9
2022-12-09T04:16:58.108Z,-0.9
2022-12-09T04:18:00.540Z,-0.9
2022-12-09T04:19:03.312Z,-0.9
2022-12-09T04:20:05.364Z,-0.9
2022-12-09T04:21:09.105Z,-0.9
2022-12-09T04:22:11.176Z,-0.9
2022-12-09T04:23:12.615Z,-0.9
2022-12-09T04:24:14.893Z,-0.9
2022-12-09T04:25:16.423Z,-0.9
2022-12-09T04:26:18.066Z,-0.9
2022-12-09T04:27:19.817Z,-0.8
2022-12-09T04:28:21.687Z,-0.8
2022-12-09T04:29:23.784Z,-0.8
2022-12-09T04:30:25.863Z,-0.8
2022-12-09T04:31:28.097Z,-0.8
2022-12-09T04:32:30.409Z,-0.8
2022-12-09T04:33:31.850Z,-0.8
2022-12-09T04:34:33.984Z,-0.8
2022-12-09T04:35:35.459Z,-0.8
2022-12-09T04:36:37.258Z,-0.8
2022-12-09T04:37:39.642Z,-0.7
2022-12-09T04:38:41.481Z,-0.7
2022-12-09T04:39:42.925Z,-0.7
2022-12-09T04:40:44.829Z,-0.7
2022-12-09T04:41:46.540Z,-0.7
2022-12-09T04:42:48.181Z,-0.7
2022-12-09T04:43:49.931Z,-0.7
2022-12-09T04:44:51.620Z,-0.7
2022-12-09T04:45:54.228Z,-0.7
2022-12-09T04:46:57.031Z,-0.7
2022-12-09T04:47:59.460Z,-0.7
2022-12-09T04:49:01.887Z,-0.7
2022-12-09T04:50:02.917Z,-0.7
2022-12-09T04:51:05.361Z,-0.7
2022-12-09T04:52:07.089Z,-0.7
2022-12-09T04:53:08.530Z,-0.7
2022-12-09T04:54:10.490Z,-0.7
2022-12-09T04:55:12.137Z,-0.7
2022-12-09T04:56:13.863Z,-0.6
2022-12-09T04:57:15.192Z,-0.6
2022-12-09T04:58:16.276Z,-0.6
2022-12-09T04:59:18.052Z,-0.6
2022-12-09T05:00:19.698Z,-0.6
2022-12-09T05:01:24.893Z,-0.6
2022-12-09T05:02:33.323Z,-0.6
2022-12-09T05:03:35.426Z,-0.6
2022-12-09T05:04:37.651Z,-0.7
2022-12-09T05:05:40.083Z,-0.7
2022-12-09T05:06:42.611Z,-0.7
2022-12-09T05:07:45.066Z,-0.7
2022-12-09T05:08:47.898Z,-0.7
2022-12-09T05:09:50.158Z,-0.7
2022-12-09T05:10:52.588Z,-0.7
2022-12-09T05:11:54.421Z,-0.7
2022-12-09T05:12:56.158Z,-0.7
2022-12-09T05:13:57.894Z,-0.7
2022-12-09T05:15:00.117Z,-0.7
2022-12-09T05:16:02.252Z,-0.7
2022-12-09T05:17:05.890Z,-0.7
2022-12-09T05:18:08.177Z,-0.7
2022-12-09T05:19:10.402Z,-0.7
2022-12-09T05:20:13.205Z,-0.7
2022-12-09T05:21:16.594Z,-0.7
2022-12-09T05:22:18.927Z,-0.7
2022-12-09T05:23:20.807Z,-0.7
2022-12-09T05:24:23.018Z,-0.7
2022-12-09T05:25:25.018Z,-0.7
2022-12-09T05:26:26.612Z,-0.7
2022-12-09T05:27:28.260Z,-0.7
2022-12-09T05:28:30.242Z,-0.7
2022-12-09T05:29:32.034Z,-0.7
2022-12-09T05:30:33.588Z,-0.7
2022-12-09T05:31:35.528Z,-0.7
2022-12-09T05:32:37.077Z,-0.7
2022-12-09T05:33:39.672Z,-0.7
2022-12-09T05:34:42.010Z,-0.7
2022-12-09T05:35:52.140Z,-0.7
2022-12-09T05:36:54.825Z,-0.7
2022-12-09T05:37:56.664Z,-0.8
2022-12-09T05:38:58.544Z,-0.8
2022-12-09T05:40:00.596Z,-0.8
2022-12-09T05:41:02.797Z,-0.8
2022-12-09T05:42:04.777Z,-0.8
2022-12-09T05:43:06.730Z,-0.8
2022-12-09T05:44:08.381Z,-0.8
2022-12-09T05:45:10.238Z,-0.8
2022-12-09T05:46:12.338Z,-0.8
2022-12-09T05:47:14.422Z,-0.9
2022-12-09T05:48:17.161Z,-0.9
2022-12-09T05:49:19.510Z,-0.9
2022-12-09T05:50:22.358Z,-0.9
2022-12-09T05:51:24.611Z,-0.9
2022-12-09T05:52:26.792Z,-0.9
2022-12-09T05:53:28.580Z,-0.9
2022-12-09T05:54:30.980Z,-0.9
2022-12-09T05:55:33.336Z,-0.9
2022-12-09T05:56:35.719Z,-0.9
2022-12-09T05:57:45.349Z,-0.9
2022-12-09T05:58:47.479Z,-0.9
2022-12-09T05:59:49.251Z,-0.9
2022-12-09T06:00:50.964Z,-0.9
2022-12-09T06:01:52.811Z,-0.9
2022-12-09T06:02:54.281Z,-0.9
2022-12-09T06:03:57.049Z,-0.9
2022-12-09T06:04:59.560Z,-0.9
2022-12-09T06:06:02.463Z,-0.9
2022-12-09T06:07:05.279Z,-0.9
2022-12-09T06:08:07.917Z,-0.9
2022-12-09T06:09:09.984Z,-0.9
2022-12-09T06:10:12.219Z,-0.9
2022-12-09T06:11:15.561Z,-0.9
2022-12-09T06:12:18.195Z,-0.9
2022-12-09T06:13:19.973Z,-0.9
2022-12-09T06:14:21.519Z,-0.9
2022-12-09T06:15:25.747Z,-0.9
2022-12-09T06:16:35.098Z,-0.9
2022-12-09T06:17:37.249Z,-0.9
2022-12-09T06:18:39.588Z,-0.9
2022-12-09T06:19:41.732Z,-0.9
2022-12-09T06:20:44.910Z,-0.9
2022-12-09T06:21:46.691Z,-0.9
2022-12-09T06:22:48.525Z,-0.9
2022-12-09T06:23:50.775Z,-0.9
2022-12-09T06:24:57.003Z,-0.9
2022-12-09T06:25:58.482Z,-0.9
2022-12-09T06:27:00.824Z,-0.8
2022-12-09T06:28:02.790Z,-0.8
2022-12-09T06:29:04.419Z,-0.8
2022-12-09T06:30:06.057Z,-0.8
2022-12-09T06:31:08.052Z,-0.8
2022-12-09T06:32:11.079Z,-0.8
2022-12-09T06:33:37.148Z,-0.8
2022-12-09T06:34:58.157Z,-0.8
2022-12-09T06:36:00.258Z,-0.8
2022-12-09T06:37:02.114Z,-0.8
2022-12-09T06:38:04.161Z,-0.8
2022-12-09T06:39:09.867Z,-0.8
2022-12-09T06:40:12.522Z,-0.8
2022-12-09T06:41:14.946Z,-0.8
2022-12-09T06:42:17.269Z,-0.8
2022-12-09T06:43:18.975Z,-0.8
2022-12-09T06:44:23.703Z,-0.8
2022-12-09T06:45:25.884Z,-0.8
2022-12-09T06:46:28.149Z,-0.8
2022-12-09T06:47:31.358Z,-0.8
2022-12-09T06:48:33.783Z,-0.7
2022-12-09T06:49:36.278Z,-0.7
2022-12-09T06:50:38.509Z,-0.7
2022-12-09T06:51:41.031Z,-0.7
2022-12-09T06:52:42.999Z,-0.7
2022-12-09T06:53:44.938Z,-0.7
2022-12-09T06:54:46.872Z,-0.7
2022-12-09T06:55:48.895Z,-0.7
2022-12-09T06:56:50.851Z,-0.7
2022-12-09T06:57:52.860Z,-0.7
2022-12-09T06:58:54.757Z,-0.7
2022-12-09T06:59:56.820Z,-0.7
2022-12-09T07:00:58.829Z,-0.7
2022-12-09T07:02:00.899Z,-0.7
2022-12-09T07:03:03.754Z,-0.7
2022-12-09T07:04:06.522Z,-0.7
2022-12-09T07:05:09.531Z,-0.7
2022-12-09T07:06:13.587Z,-0.7
2022-12-09T07:07:16.035Z,-0.7
2022-12-09T07:08:18.405Z,-0.7
2022-12-09T07:09:20.920Z,-0.6
2022-12-09T07:10:23.813Z,-0.6
2022-12-09T07:11:29.248Z,-0.6
2022-12-09T07:12:32.147Z,-0.6
2022-12-09T07:13:33.993Z,-0.6
2022-12-09T07:14:35.635Z,-0.6
2022-12-09T07:15:37.618Z,-0.6
2022-12-09T07:16:39.372Z,-0.6
2022-12-09T07:17:41.579Z,-0.6
2022-12-09T07:18:43.956Z,-0.6
2022-12-09T07:19:46.498Z,-0.6
2022-12-09T07:20:49.359Z,-0.6
2022-12-09T07:21:51.641Z,-0.5
2022-12-09T07:22:53.930Z,-0.5
2022-12-09T07:23:55.530Z,-0.5
2022-12-09T07:24:57.247Z,-0.5
2022-12-09T07:25:59.228Z,-0.5
2022-12-09T07:27:04.681Z,-0.5
2022-12-09T07:28:19.200Z,-0.5
2022-12-09T07:29:21.011Z,-0.5
2022-12-09T07:30:23.263Z,-0.5
2022-12-09T07:31:25.365Z,-0.5
2022-12-09T07:32:28.219Z,-0.5
2022-12-09T07:33:30.625Z,-0.5
2022-12-09T07:34:33.476Z,-0.5
2022-12-09T07:35:35.739Z,-0.5
2022-12-09T07:36:38.744Z,-0.5
2022-12-09T07:37:40.563Z,-0.4
2022-12-09T07:38:42.702Z,-0.4
2022-12-09T07:39:44.819Z,-0.4
2022-12-09T07:40:46.813Z,-0.4
2022-12-09T07:41:48.405Z,-0.4
2022-12-09T07:42:53.684Z,-0.4
2022-12-09T07:44:01.409Z,-0.4
2022-12-09T07:45:03.663Z,-0.4
2022-12-09T07:46:07.158Z,-0.3
2022-12-09T07:47:10.095Z,-0.3
2022-12-09T07:48:12.706Z,-0.3
2022-12-09T07:49:15.125Z,-0.3
2022-12-09T07:50:17.781Z,-0.3
2022-12-09T07:51:19.864Z,-0.2
2022-12-09T07:52:21.707Z,-0.2
2022-12-09T07:53:23.675Z,-0.2
2022-12-09T07:54:25.415Z,-0.2
2022-12-09T07:55:27.021Z,-0.2
2022-12-09T07:56:29.326Z,-0.2
2022-12-09T07:57:31.719Z,-0.1
2022-12-09T07:58:33.517Z,-0.1
2022-12-09T07:59:34.904Z,-0.1
2022-12-09T08:00:36.691Z,-0.1
2022-12-09T08:01:38.575Z,-0.1
2022-12-09T08:02:40.890Z,-0.1
2022-12-09T08:03:43.320Z,0
2022-12-09T08:04:46.184Z,0
2022-12-09T08:05:48.829Z,0
2022-12-09T08:06:51.831Z,0
2022-12-09T08:07:54.625Z,0
2022-12-09T08:08:57.651Z,0
2022-12-09T08:10:00.270Z,0
2022-12-09T08:11:03.054Z,0.1
2022-12-09T08:12:05.442Z,0.1
2022-12-09T08:13:07.451Z,0.1
2022-12-09T08:14:12.121Z,0.1
2022-12-09T08:15:16.068Z,0.1
2022-12-09T08:16:18.467Z,0.1
2022-12-09T08:17:21.390Z,0.1
2022-12-09T08:18:23.914Z,0.2
2022-12-09T08:19:26.250Z,0.2
2022-12-09T08:20:29.525Z,0.2
2022-12-09T08:21:32.613Z,0.3
2022-12-09T08:22:34.981Z,0.3
2022-12-09T08:23:37.293Z,0.3
2022-12-09T08:24:39.319Z,0.3
2022-12-09T08:25:41.821Z,0.3
2022-12-09T08:26:43.965Z,0.3
2022-12-09T08:27:45.722Z,0.4
2022-12-09T08:28:47.780Z,0.4
2022-12-09T08:29:50.204Z,0.4
2022-12-09T08:30:52.287Z,0.4
2022-12-09T08:31:54.667Z,0.5
2022-12-09T08:32:57.994Z,0.5
2022-12-09T08:34:00.749Z,0.5
2022-12-09T08:35:02.929Z,0.5
2022-12-09T08:36:05.341Z,0.5
2022-12-09T08:37:06.899Z,0.5
2022-12-09T08:38:08.421Z,0.6
2022-12-09T08:39:10.238Z,0.6
2022-12-09T08:40:12.506Z,0.6
2022-12-09T08:41:16.306Z,0.6
2022-12-09T08:42:18.326Z,0.6
2022-12-09T08:43:20.262Z,0.7
2022-12-09T08:44:22.205Z,0.7
2022-12-09T08:45:24.244Z,0.7
2022-12-09T08:46:26.361Z,0.7
2022-12-09T08:47:28.565Z,0.7
2022-12-09T08:48:30.851Z,0.7
2022-12-09T08:49:33.108Z,0.7
2022-12-09T08:50:35.487Z,0.8
2022-12-09T08:51:37.573Z,0.8
2022-12-09T08:52:40.830Z,0.8
2022-12-09T08:53:43.703Z,0.8
2022-12-09T08:54:45.619Z,0.8
2022-12-09T08:55:47.760Z,0.9
2022-12-09T08:56:49.981Z,0.9
2022-12-09T08:57:51.445Z,0.9
2022-12-09T08:58:53.236Z,0.9
2022-12-09T08:59:55.138Z,0.9
2022-12-09T09:00:57.408Z,0.9
2022-12-09T09:01:59.579Z,1
2022-12-09T09:03:01.889Z,1
2022-12-09T09:04:05.043Z,1
2022-12-09T09:05:09.500Z,1
2022-12-09T09:06:12.363Z,1.1
2022-12-09T09:07:15.068Z,1.1
2022-12-09T09:08:17.585Z,1.1
2022-12-09T09:09:20.323Z,1.2
2022-12-09T09:10:23.300Z,1.2
2022-12-09T09:11:26.047Z,1.2
2022-12-09T09:12:28.553Z,1.2
2022-12-09T09:13:30.695Z,1.2
2022-12-09T09:14:32.795Z,1.3
2022-12-09T09:15:35.056Z,1.3
2022-12-09T09:16:37.560Z,1.3
2022-12-09T09:17:40.221Z,1.4
2022-12-09T09:18:52.544Z,1.4
2022-12-09T09:19:55.173Z,1.4
2022-12-09T09:20:57.519Z,1.4
2022-12-09T09:21:59.266Z,1.4
2022-12-09T09:23:03.221Z,1.4
2022-12-09T09:24:05.460Z,1.4
2022-12-09T09:25:08.003Z,1.4
2022-12-09T09:26:11.735Z,1.4
2022-12-09T09:27:13.556Z,1.4
2022-12-09T09:28:15.568Z,1.5
2022-12-09T09:29:17.675Z,1.5
2022-12-09T09:30:19.776Z,1.5
2022-12-09T09:31:21.998Z,1.5
2022-12-09T09:32:24.851Z,1.5
2022-12-09T09:33:27.366Z,1.6
2022-12-09T09:34:29.845Z,1.6
2022-12-09T09:35:32.347Z,1.6
2022-12-09T09:36:34.206Z,1.6
2022-12-09T09:37:36.298Z,1.7
2022-12-09T09:38:38.453Z,1.7
2022-12-09T09:39:41.272Z,1.7
2022-12-09T09:40:43.662Z,1.8
2022-12-09T09:41:46.217Z,1.8
2022-12-09T09:42:49.172Z,1.8
2022-12-09T09:43:51.168Z,1.8
2022-12-09T09:44:53.513Z,1.9
2022-12-09T09:45:56.090Z,1.9
2022-12-09T09:46:58.515Z,1.9
2022-12-09T09:48:01.251Z,1.9
2022-12-09T09:49:04.856Z,1.9
2022-12-09T09:50:08.256Z,1.9
2022-12-09T09:51:11.181Z,1.9
2022-12-09T09:52:12.827Z,2
2022-12-09T09:53:14.893Z,2
2022-12-09T09:54:16.729Z,2
2022-12-09T09:55:19.187Z,2.1
2022-12-09T09:56:21.220Z,2.1
2022-12-09T09:57:23.479Z,2.1
2022-12-09T09:58:25.489Z,2.2
2022-12-09T09:59:27.905Z,2.2
2022-12-09T10:00:30.203Z,2.2
2022-12-09T10:01:33.611Z,2.2
2022-12-09T10:02:36.411Z,2.3
2022-12-09T10:03:39.720Z,2.3
2022-12-09T10:04:42.745Z,2.3
2022-12-09T10:05:46.121Z,2.4
2022-12-09T10:06:49.890Z,2.4
2022-12-09T10:07:52.909Z,2.4
2022-12-09T10:08:56.429Z,2.5
2022-12-09T10:09:59.028Z,2.5
2022-12-09T10:11:02.760Z,2.5
2022-12-09T10:12:05.591Z,2.5
2022-12-09T10:13:12.882Z,2.5
2022-12-09T10:14:20.537Z,2.5
2022-12-09T10:15:23.267Z,2.5
2022-12-09T10:16:26.025Z,2.5
2022-12-09T10:17:29.111Z,2.5
2022-12-09T10:18:32.008Z,2.5
2022-12-09T10:19:34.493Z,2.5
2022-12-09T10:20:36.791Z,2.5
2022-12-09T10:21:39.483Z,2.5
2022-12-09T10:22:42.301Z,2.5
2022-12-09T10:23:44.965Z,2.5
2022-12-09T10:24:47.714Z,2.6
2022-12-09T10:25:50.193Z,2.6
2022-12-09T10:26:53.835Z,2.6
2022-12-09T10:27:56.066Z,2.6
2022-12-09T10:28:58.645Z,2.6
2022-12-09T10:30:00.880Z,2.6
2022-12-09T10:31:03.388Z,2.6
2022-12-09T10:32:06.069Z,2.6
2022-12-09T10:33:08.075Z,2.7
2022-12-09T10:34:10.293Z,2.7
2022-12-09T10:35:12.516Z,2.8
2022-12-09T10:36:14.830Z,2.8
2022-12-09T10:37:16.549Z,2.8
2022-12-09T10:38:18.347Z,2.8
2022-12-09T10:39:20.380Z,2.8
2022-12-09T10:40:22.990Z,2.8
2022-12-09T10:41:25.599Z,2.8
2022-12-09T10:42:33.314Z,2.8
2022-12-09T10:43:37.738Z,2.7
2022-12-09T10:44:41.154Z,2.7
2022-12-09T10:46:15.494Z,2.7
2022-12-09T10:47:22.257Z,2.7
2022-12-09T10:48:27.893Z,2.6
2022-12-09T10:49:35.072Z,2.6
2022-12-09T10:50:38.125Z,2.6
2022-12-09T10:51:40.408Z,2.6
2022-12-09T10:52:42.454Z,2.6
2022-12-09T10:53:44.706Z,2.6
2022-12-09T10:54:46.432Z,2.7
2022-12-09T10:55:48.235Z,2.7
2022-12-09T10:56:50.635Z,2.7
2022-12-09T10:57:54.395Z,2.7
2022-12-09T10:58:56.555Z,2.8
2022-12-09T10:59:58.663Z,2.8
2022-12-09T11:01:07.138Z,2.8
2022-12-09T11:02:09.909Z,2.8
2022-12-09T11:03:12.890Z,2.8
2022-12-09T11:04:15.149Z,2.8
2022-12-09T11:05:17.232Z,2.8
2022-12-09T11:06:20.356Z,2.9
2022-12-09T11:07:24.098Z,2.9
2022-12-09T11:08:26.735Z,2.9
2022-12-09T11:09:29.216Z,2.9
2022-12-09T11:10:33.324Z,2.9
2022-12-09T11:11:36.289Z,2.9
2022-12-09T11:12:40.798Z,2.9
2022-12-09T11:13:44.175Z,2.9
2022-12-09T11:14:46.613Z,2.9
2022-12-09T11:15:48.811Z,2.9
2022-12-09T11:16:51.291Z,2.9
2022-12-09T11:17:55.784Z,2.9
2022-12-09T11:18:58.574Z,3
2022-12-09T11:20:01.012Z,3
2022-12-09T11:21:03.370Z,3
2022-12-09T11:22:07.031Z,3
2022-12-09T11:23:09.157Z,3
2022-12-09T11:24:11.096Z,3
2022-12-09T11:25:13.921Z,3
2022-12-09T11:26:16.437Z,3
2022-12-09T11:27:18.067Z,3.1
2022-12-09T11:28:20.254Z,3.1
2022-12-09T11:29:22.142Z,3.1
2022-12-09T11:30:24.816Z,3.1
2022-12-09T11:31:32.573Z,3.1
2022-12-09T11:32:36.085Z,3.1
2022-12-09T11:34:44.670Z,3.2
2022-12-09T11:35:47.044Z,3.2
2022-12-09T11:36:49.080Z,3.2
2022-12-09T11:37:50.512Z,3.2
2022-12-09T11:38:51.631Z,3.2
2022-12-09T11:39:53.048Z,3.2
2022-12-09T11:40:54.460Z,3.2
2022-12-09T11:41:55.639Z,3.2
2022-12-09T11:42:57.065Z,3.2
2022-12-09T11:43:58.464Z,3.2
2022-12-09T11:44:59.370Z,3.2
2022-12-09T11:46:00.261Z,3.2
2022-12-09T11:47:01.493Z,3.2
2022-12-09T11:49:44.537Z,3.2
2022-12-09T11:50:46.031Z,3.2
2022-12-09T11:51:47.589Z,3.2
2022-12-09T11:52:48.470Z,3.2
2022-12-09T11:53:49.860Z,3.2
2022-12-09T11:54:50.996Z,3.2
2022-12-09T11:55:52.130Z,3.2
2022-12-09T11:56:53.328Z,3.2
2022-12-09T11:57:54.739Z,3.1
2022-12-09T11:58:55.334Z,3.1
2022-12-09T11:59:56.469Z,3.1
2022-12-09T12:00:57.638Z,3.1
2022-12-09T12:01:59.098Z,3.1
2022-12-09T12:03:00.987Z,3.1
2022-12-09T12:04:02.852Z,3
2022-12-09T12:05:04.243Z,3
2022-12-09T12:06:05.655Z,3
2022-12-09T12:07:07.074Z,3
2022-12-09T12:08:08.375Z,2.9
2022-12-09T12:09:09.724Z,2.9
2022-12-09T12:10:10.820Z,2.9
2022-12-09T12:11:15.241Z,2.9
2022-12-09T12:12:16.673Z,2.9
2022-12-09T12:13:18.105Z,2.9
2022-12-09T12:14:19.257Z,2.9
2022-12-09T12:15:20.670Z,2.9
2022-12-09T12:16:21.851Z,2.8
2022-12-09T12:17:22.746Z,2.8
2022-12-09T12:18:23.988Z,2.8
2022-12-09T12:19:25.127Z,2.8
2022-12-09T12:20:26.520Z,2.8
2022-12-09T12:21:27.934Z,2.8
2022-12-09T12:22:29.069Z,2.8
2022-12-09T12:23:30.230Z,2.8
2022-12-09T12:24:31.372Z,2.8
2022-12-09T12:25:32.565Z,2.8
2022-12-09T12:26:33.976Z,2.8
2022-12-09T12:27:35.112Z,2.8
2022-12-09T12:28:36.257Z,2.7
2022-12-09T12:29:37.153Z,2.7
2022-12-09T12:30:38.059Z,2.7
2022-12-09T12:31:39.484Z,2.7
2022-12-09T12:32:40.893Z,2.7
2022-12-09T12:35:33.351Z,2.7
2022-12-09T12:36:37.776Z,2.7
2022-12-09T12:37:39.192Z,2.7
2022-12-09T12:38:40.339Z,2.7
2022-12-09T12:39:41.210Z,2.7
2022-12-09T12:40:42.346Z,2.7
2022-12-09T12:41:43.522Z,2.7
2022-12-09T12:42:44.661Z,2.7
2022-12-09T12:43:45.843Z,2.7
2022-12-09T12:44:47.402Z,2.7
2022-12-09T12:45:53.226Z,2.6
2022-12-09T12:46:56.134Z,2.6
2022-12-09T12:47:57.274Z,2.6
2022-12-09T12:48:59.388Z,2.6
2022-12-09T12:50:00.245Z,2.6
2022-12-09T12:51:01.680Z,2.6
2022-12-09T12:52:02.549Z,2.6
2022-12-09T12:53:04.046Z,2.6
2022-12-09T12:54:04.972Z,2.6
2022-12-09T12:55:06.111Z,2.6
2022-12-09T12:56:07.241Z,2.6
2022-12-09T12:57:10.016Z,2.6
2022-12-09T12:58:11.760Z,2.5
2022-12-09T12:59:13.167Z,2.5
2022-12-09T13:00:14.297Z,2.5
2022-12-09T13:01:15.280Z,2.5
2022-12-09T13:02:16.366Z,2.5
2022-12-09T13:03:17.746Z,2.5
2022-12-09T13:04:19.168Z,2.5
2022-12-09T13:05:20.304Z,2.5
2022-12-09T13:06:21.267Z,2.5
2022-12-09T13:07:22.633Z,2.4
2022-12-09T13:08:23.832Z,2.4
2022-12-09T13:09:25.183Z,2.4
2022-12-09T13:10:26.575Z,2.4
2022-12-09T13:11:28.000Z,2.4
2022-12-09T13:12:29.130Z,2.4
2022-12-09T13:13:30.018Z,2.4
2022-12-09T13:14:30.996Z,2.4
2022-12-09T13:15:32.097Z,2.4
2022-12-09T13:16:33.528Z,2.4
2022-12-09T13:17:34.655Z,2.4
2022-12-09T13:18:35.785Z,2.4
2022-12-09T13:19:37.224Z,2.4
2022-12-09T13:20:38.376Z,2.4
2022-12-09T13:21:39.253Z,2.4
2022-12-09T13:22:40.085Z,2.4
2022-12-09T13:23:40.956Z,2.3
2022-12-09T13:24:42.388Z,2.3
2022-12-09T13:25:43.493Z,2.3
2022-12-09T13:26:44.629Z,2.3
2022-12-09T13:27:45.245Z,2.3
2022-12-09T13:28:46.676Z,2.3
2022-12-09T13:29:47.565Z,2.3
2022-12-09T13:30:53.911Z,2.3
2022-12-09T13:31:55.819Z,2.3
2022-12-09T13:32:56.718Z,2.3
2022-12-09T13:33:58.128Z,2.3
2022-12-09T13:34:59.283Z,2.3
2022-12-09T13:36:04.057Z,2.3
2022-12-09T13:37:07.652Z,2.3
2022-12-09T13:38:08.527Z,2.3
2022-12-09T13:39:09.360Z,2.3
2022-12-09T13:40:10.759Z,2.3
2022-12-09T13:41:12.033Z,2.3
2022-12-09T13:42:12.629Z,2.3
2022-12-09T13:43:13.587Z,2.3
2022-12-09T13:44:14.533Z,2.3
2022-12-09T13:45:15.697Z,2.3
2022-12-09T13:46:17.146Z,2.3
2022-12-09T13:47:18.483Z,2.3
2022-12-09T13:48:19.355Z,2.3
2022-12-09T13:49:20.765Z,2.3
2022-12-09T13:50:22.450Z,2.3
2022-12-09T13:51:23.912Z,2.3
2022-12-09T13:52:25.361Z,2.3
2022-12-09T13:53:26.745Z,2.3
2022-12-09T13:54:28.125Z,2.3
2022-12-09T13:55:29.374Z,2.3
2022-12-09T13:56:30.737Z,2.3
2022-12-09T13:57:31.873Z,2.3
2022-12-09T13:58:33.285Z,2.3
2022-12-09T13:59:34.421Z,2.3
2022-12-09T14:00:35.606Z,2.3
2022-12-09T14:01:36.783Z,2.2
2022-12-09T14:02:38.252Z,2.2
2022-12-09T14:03:39.784Z,2.2
2022-12-09T14:04:41.487Z,2.2
2022-12-09T14:05:42.867Z,2.2
2022-12-09T14:06:44.271Z,2.2
2022-12-09T14:07:45.746Z,2.2
2022-12-09T14:08:46.921Z,2.2
2022-12-09T14:09:48.061Z,2.2
2022-12-09T14:10:49.196Z,2.2
2022-12-09T14:11:50.327Z,2.2